Time;durP1;ratioP1;P1;durP2;ratioP2;P2;SDS_P1;SDS_P2;PMS_P1;PMS_P2;Temp;Humidity;BMP_temperature;BMP_pressure;BME280_temperature;BME280_humidity;BME280_pressure;Samples;Min_cycle;Max_cycle;Signal;HPM_P1;HPM_P2
2022/07/23 00:01:16;;;;;;;11.10;8.15;;;;;;;27.46;38.60;98782.03;5074928;28;20037;-92
2022/07/23 00:03:42;;;;;;;10.40;7.78;;;;;;;27.47;38.82;98788.34;5074518;28;20570;-90
2022/07/23 00:06:08;;;;;;;10.00;7.65;;;;;;;27.40;38.86;98779.91;5074312;28;20048;-91
2022/07/23 00:08:33;;;;;;;8.88;7.43;;;;;;;27.43;38.80;98787.78;5074960;28;20053;-92
2022/07/23 00:11:00;;;;;;;9.32;7.80;;;;;;;27.41;39.13;98787.06;5074359;28;20048;-92
2022/07/23 00:13:26;;;;;;;8.65;7.72;;;;;;;27.45;39.73;98788.50;5073805;28;20051;-91
2022/07/23 00:15:53;;;;;;;13.32;7.82;;;;;;;27.36;39.50;98775.75;5074623;28;20045;-91
2022/07/23 00:18:19;;;;;;;8.65;7.13;;;;;;;27.40;39.69;98788.09;5073883;28;20041;-91
2022/07/23 00:20:45;;;;;;;10.45;7.50;;;;;;;27.29;39.66;98782.81;5072468;28;20040;-91
2022/07/23 00:23:10;;;;;;;9.80;7.78;;;;;;;27.20;40.38;98777.19;5073888;28;20390;-92
2022/07/23 00:25:37;;;;;;;8.98;7.47;;;;;;;27.11;40.11;98767.16;5072727;28;20075;-94
2022/07/23 00:28:03;;;;;;;11.23;7.65;;;;;;;27.19;40.38;98799.16;5074220;28;20047;-93
2022/07/23 00:30:30;;;;;;;8.88;7.80;;;;;;;27.15;40.71;98792.28;5073953;28;20066;-92
2022/07/23 00:33:01;;;;;;;8.57;7.63;;;;;;;27.15;41.04;98803.19;5073633;28;20032;-89
2022/07/23 00:35:28;;;;;;;10.88;7.97;;;;;;;27.07;41.25;98795.75;5074220;28;20033;-92
2022/07/23 00:37:55;;;;;;;8.60;7.68;;;;;;;27.05;41.46;98789.56;5073765;28;20493;-91
2022/07/23 00:40:21;;;;;;;9.25;7.47;;;;;;;26.89;41.63;98784.72;5072565;28;20037;-92
2022/07/23 00:42:47;;;;;;;8.93;7.30;;;;;;;26.75;42.31;98788.72;5072867;28;20170;-91
2022/07/23 00:45:13;;;;;;;9.55;7.30;;;;;;;26.53;42.51;98772.63;5072133;28;20040;-92
2022/07/23 00:47:39;;;;;;;11.07;7.75;;;;;;;26.58;42.86;98792.16;5073143;28;20464;-92
2022/07/23 00:50:08;;;;;;;11.65;7.70;;;;;;;26.52;43.10;98796.28;5073736;28;20033;-91
2022/07/23 00:52:35;;;;;;;9.18;7.70;;;;;;;26.37;43.63;98797.72;5073460;28;20036;-93
2022/07/23 00:55:01;;;;;;;10.25;7.63;;;;;;;26.17;44.06;98766.84;5073398;28;20048;-91
2022/07/23 00:57:27;;;;;;;8.65;7.22;;;;;;;26.06;43.93;98775.13;5073439;28;20044;-91
2022/07/23 00:59:53;;;;;;;8.88;7.03;;;;;;;26.11;44.17;98776.44;5073410;28;20040;-92
2022/07/23 01:02:19;;;;;;;8.50;7.05;;;;;;;26.07;44.53;98783.19;5073454;28;20060;-92
2022/07/23 01:04:45;;;;;;;8.63;7.10;;;;;;;25.99;44.38;98775.69;5073189;28;20045;-92
2022/07/23 01:07:12;;;;;;;8.65;7.47;;;;;;;25.92;44.89;98770.94;5073576;28;20036;-90
2022/07/23 01:09:38;;;;;;;10.38;7.32;;;;;;;25.89;45.09;98773.94;5072330;28;20056;-92
2022/07/23 01:12:05;;;;;;;11.48;7.18;;;;;;;25.78;45.39;98761.25;5072562;28;20052;-90
2022/07/23 01:14:31;;;;;;;8.65;6.90;;;;;;;25.75;45.59;98767.84;5071918;28;20094;-92
2022/07/23 01:16:56;;;;;;;9.25;7.38;;;;;;;25.73;45.79;98771.72;5072916;28;20049;-93
2022/07/23 01:19:22;;;;;;;8.60;6.88;;;;;;;25.75;46.15;98780.59;5073000;28;20485;-92
2022/07/23 01:21:50;;;;;;;7.80;6.75;;;;;;;25.72;46.38;98786.31;5072193;28;20398;-92
2022/07/23 01:24:19;;;;;;;8.65;7.25;;;;;;;25.64;46.68;98778.84;5073808;28;20102;-91
2022/07/23 01:26:46;;;;;;;11.07;7.43;;;;;;;25.55;46.70;98774.22;5072754;28;20033;-92
2022/07/23 01:29:13;;;;;;;9.82;7.22;;;;;;;25.38;47.12;98754.78;5072828;28;20051;-92
2022/07/23 01:31:39;;;;;;;8.90;6.90;;;;;;;25.37;47.29;98768.53;5071850;28;20123;-91
2022/07/23 01:34:06;;;;;;;8.05;7.25;;;;;;;25.21;47.64;98744.53;5072852;28;20127;-92
2022/07/23 01:36:32;;;;;;;10.47;7.17;;;;;;;25.25;47.84;98765.03;5073234;28;20405;-91
2022/07/23 01:38:58;;;;;;;10.80;7.90;;;;;;;25.11;47.85;98758.06;5073508;28;20040;-91
2022/07/23 01:41:25;;;;;;;8.60;7.35;;;;;;;25.10;48.27;98777.22;5074006;28;20028;-92
2022/07/23 01:43:51;;;;;;;8.63;7.10;;;;;;;24.86;48.62;98750.31;5072865;28;20040;-92
2022/07/23 01:46:17;;;;;;;9.38;7.30;;;;;;;24.80;49.09;98757.13;5072704;28;20536;-88
2022/07/23 01:48:43;;;;;;;9.45;7.00;;;;;;;24.72;49.32;98759.63;5072775;28;20043;-94
2022/07/23 01:51:08;;;;;;;9.27;7.55;;;;;;;24.56;49.77;98755.50;5072981;28;20048;-91
2022/07/23 01:53:34;;;;;;;8.65;7.10;;;;;;;24.37;50.36;98753.44;5072847;28;20036;-91
2022/07/23 01:56:00;;;;;;;10.00;7.95;;;;;;;24.32;50.45;98752.97;5071888;28;20519;-92
2022/07/23 01:58:28;;;;;;;11.90;7.30;;;;;;;24.37;50.94;98777.03;5072540;28;20098;-91
2022/07/23 02:00:54;;;;;;;9.00;7.55;;;;;;;24.34;50.83;98766.44;5073270;28;20052;-92
2022/07/23 02:03:21;;;;;;;10.25;8.25;;;;;;;24.37;50.85;98774.31;5073143;28;20493;-92
2022/07/23 02:05:48;;;;;;;10.20;7.60;;;;;;;24.36;50.89;98773.47;5072855;28;20041;-91
2022/07/23 02:08:14;;;;;;;10.20;7.35;;;;;;;24.32;51.00;98757.56;5072818;28;20128;-91
2022/07/23 02:10:40;;;;;;;9.13;7.35;;;;;;;24.40;51.16;98776.81;5072493;28;20064;-92
2022/07/23 02:13:06;;;;;;;12.00;7.68;;;;;;;24.25;51.50;98759.94;5071044;28;20106;-92
2022/07/23 02:15:33;;;;;;;8.60;7.30;;;;;;;24.30;51.44;98756.81;5072304;28;20397;-92
2022/07/23 02:17:59;;;;;;;9.90;7.38;;;;;;;24.27;51.90;98759.81;5069939;28;20043;-90
2022/07/23 02:20:25;;;;;;;8.50;7.20;;;;;;;24.19;51.82;98755.00;5072265;28;20033;-91
2022/07/23 02:22:51;;;;;;;9.80;7.45;;;;;;;24.30;51.91;98773.97;5072680;28;20040;-93
2022/07/23 02:25:17;;;;;;;10.30;7.00;;;;;;;24.27;52.21;98771.53;5072586;28;20039;-91
2022/07/23 02:27:43;;;;;;;10.00;7.43;;;;;;;24.28;52.20;98770.53;5072717;28;20066;-92
2022/07/23 02:30:10;;;;;;;8.52;6.90;;;;;;;24.10;52.13;98744.91;5072994;28;20057;-91
2022/07/23 02:32:39;;;;;;;10.68;7.20;;;;;;;24.19;52.17;98764.00;5072546;28;20037;-92
2022/07/23 02:35:05;;;;;;;8.68;6.88;;;;;;;24.07;52.78;98772.31;5072787;28;20436;-92
2022/07/23 02:37:32;;;;;;;10.88;7.40;;;;;;;23.85;53.05;98751.50;5072790;28;20062;-91
2022/07/23 02:39:57;;;;;;;10.32;7.25;;;;;;;23.95;53.00;98772.34;5072439;28;20040;-92
2022/07/23 02:42:23;;;;;;;11.38;7.85;;;;;;;23.74;53.35;98747.75;5071455;28;20036;-91
2022/07/23 02:44:49;;;;;;;8.88;7.40;;;;;;;23.74;53.60;98764.06;5073888;28;20077;-90
2022/07/23 02:47:15;;;;;;;9.43;7.10;;;;;;;23.71;53.76;98777.03;5075876;28;20068;-91
2022/07/23 02:49:42;;;;;;;9.45;6.93;;;;;;;23.57;53.86;98760.03;5075970;28;20143;-91
2022/07/23 02:52:10;;;;;;;8.32;7.45;;;;;;;23.70;54.02;98778.00;5075212;28;21683;-89
2022/07/23 02:54:36;;;;;;;9.95;7.57;;;;;;;23.73;54.26;98781.34;5075562;28;20051;-90
2022/07/23 02:57:01;;;;;;;11.52;7.45;;;;;;;23.55;54.55;98772.84;5075974;28;20100;-91
2022/07/23 02:59:27;;;;;;;9.65;7.57;;;;;;;23.49;54.86;98778.78;5076437;28;20041;-91
2022/07/23 03:01:53;;;;;;;9.25;7.38;;;;;;;23.29;55.40;98760.47;5076164;28;20044;-90
2022/07/23 03:04:19;;;;;;;8.48;7.63;;;;;;;23.33;55.40;98773.72;5076251;28;20036;-91
2022/07/23 03:06:46;;;;;;;9.95;7.05;;;;;;;23.31;55.45;98769.38;5075951;28;20571;-93
2022/07/23 03:09:12;;;;;;;10.48;7.43;;;;;;;23.22;55.86;98748.41;5075768;28;20040;-91
2022/07/23 03:11:38;;;;;;;9.27;7.30;;;;;;;23.27;55.76;98763.34;5076034;28;20033;-91
2022/07/23 03:14:04;;;;;;;8.57;7.30;;;;;;;23.40;55.57;98776.78;5075762;28;20055;-91
2022/07/23 03:16:30;;;;;;;10.02;7.82;;;;;;;23.37;55.75;98772.44;5075615;28;20045;-91
2022/07/23 03:18:55;;;;;;;9.35;7.32;;;;;;;23.35;56.16;98771.72;5075241;28;20102;-90
2022/07/23 03:21:21;;;;;;;9.90;7.13;;;;;;;23.47;55.92;98779.88;5075658;28;20071;-93
2022/07/23 03:23:48;;;;;;;10.43;7.53;;;;;;;23.34;55.75;98764.56;5075208;28;20056;-92
2022/07/23 03:26:14;;;;;;;11.32;7.40;;;;;;;23.25;56.61;98769.84;5074918;28;20043;-91
2022/07/23 03:28:40;;;;;;;11.10;7.22;;;;;;;23.27;56.34;98770.59;5075345;28;20131;-92
2022/07/23 03:31:06;;;;;;;11.38;7.35;;;;;;;23.22;57.08;98781.81;5075349;28;20086;-91
2022/07/23 03:33:32;;;;;;;8.65;7.10;;;;;;;23.09;56.88;98767.50;5075432;28;20036;-93
2022/07/23 03:35:57;;;;;;;11.25;7.82;;;;;;;23.02;57.21;98772.53;5075650;28;20036;-91
2022/07/23 03:38:23;;;;;;;10.77;7.57;;;;;;;22.98;57.24;98784.56;5074819;28;20039;-91
2022/07/23 03:40:50;;;;;;;10.63;7.60;;;;;;;22.80;57.44;98753.47;5075604;28;20063;-92
2022/07/23 03:43:16;;;;;;;8.20;7.25;;;;;;;22.94;57.71;98788.50;5075409;28;20043;-91
2022/07/23 03:45:42;;;;;;;8.82;7.07;;;;;;;22.72;57.95;98768.47;5075338;28;20037;-91
2022/07/23 03:48:07;;;;;;;9.73;7.65;;;;;;;22.87;57.81;98803.53;5074536;28;20066;-90
2022/07/23 03:50:34;;;;;;;11.27;7.75;;;;;;;22.70;58.51;98784.00;5075174;28;20052;-92
2022/07/23 03:53:00;;;;;;;8.98;7.40;;;;;;;22.76;58.53;98802.50;5074900;28;20040;-91
2022/07/23 03:55:26;;;;;;;11.10;7.85;;;;;;;22.80;58.29;98818.56;5074825;28;20062;-91
2022/07/23 03:57:53;;;;;;;10.07;7.70;;;;;;;22.76;58.75;98816.06;5073727;28;20048;-91
2022/07/23 04:00:19;;;;;;;11.32;7.80;;;;;;;22.67;59.04;98805.94;5074581;28;20493;-92
2022/07/23 04:02:45;;;;;;;10.95;7.88;;;;;;;22.68;59.00;98813.06;5074262;28;20040;-90
2022/07/23 04:05:12;;;;;;;10.60;7.65;;;;;;;22.58;58.80;98797.66;5074774;28;20040;-92
2022/07/23 04:07:38;;;;;;;8.93;7.68;;;;;;;22.65;58.95;98807.03;5078129;28;20040;-92
2022/07/23 04:10:05;;;;;;;9.57;7.82;;;;;;;22.72;59.18;98828.13;5075768;28;20044;-90
2022/07/23 04:12:31;;;;;;;11.63;7.35;;;;;;;22.76;59.37;98829.63;5075899;28;20128;-91
2022/07/23 04:14:58;;;;;;;10.85;7.68;;;;;;;22.69;59.21;98822.09;5074957;28;20067;-93
2022/07/23 04:17:25;;;;;;;8.82;7.47;;;;;;;22.74;59.46;98833.44;5074711;28;20424;-91
2022/07/23 04:19:51;;;;;;;12.32;8.00;;;;;;;22.62;59.43;98810.84;5074608;28;20090;-92
2022/07/23 04:22:16;;;;;;;9.40;7.57;;;;;;;22.67;59.83;98827.59;5074880;28;20036;-94
2022/07/23 04:24:42;;;;;;;9.98;7.90;;;;;;;22.65;60.59;98835.00;5074809;28;20037;-92
2022/07/23 04:27:08;;;;;;;12.25;8.15;;;;;;;22.61;60.30;98819.09;5076492;28;20063;-92
2022/07/23 04:29:34;;;;;;;9.10;7.63;;;;;;;22.69;60.78;98836.50;5074352;28;20036;-91
2022/07/23 04:32:02;;;;;;;11.27;8.15;;;;;;;22.60;60.47;98820.03;5074859;28;20044;-89
2022/07/23 04:34:27;;;;;;;11.82;8.02;;;;;;;22.71;60.17;98836.38;5073117;28;20048;-91
2022/07/23 04:36:54;;;;;;;11.13;8.80;;;;;;;22.59;60.74;98811.06;5074371;28;20569;-91
2022/07/23 04:39:20;;;;;;;12.63;8.07;;;;;;;22.74;60.70;98831.56;5076854;28;20033;-91
2022/07/23 04:41:45;;;;;;;10.93;8.10;;;;;;;22.74;60.86;98828.00;5076408;28;20050;-92
2022/07/23 04:44:11;;;;;;;10.63;8.02;;;;;;;22.72;61.00;98827.25;5075675;28;20044;-92
2022/07/23 04:46:38;;;;;;;11.48;8.88;;;;;;;22.70;61.16;98823.78;5075618;28;20052;-90
2022/07/23 04:49:05;;;;;;;13.45;8.35;;;;;;;22.66;61.60;98825.00;5076192;28;20056;-92
2022/07/23 04:51:31;;;;;;;12.40;8.38;;;;;;;22.73;61.46;98835.28;5075945;28;20040;-91
2022/07/23 04:53:57;;;;;;;12.70;8.98;;;;;;;22.74;62.16;98834.28;5076084;28;20044;-92
2022/07/23 04:56:22;;;;;;;11.15;8.98;;;;;;;22.80;60.97;98823.97;5075696;28;20492;-92
2022/07/23 04:58:48;;;;;;;10.73;8.32;;;;;;;22.91;60.80;98826.72;5076311;28;20108;-92
2022/07/23 05:01:14;;;;;;;11.65;8.60;;;;;;;22.98;61.07;98838.81;5076945;28;20040;-92
2022/07/23 05:03:40;;;;;;;11.27;8.35;;;;;;;22.99;61.71;98827.00;5075746;28;20067;-90
2022/07/23 05:06:07;;;;;;;11.73;8.68;;;;;;;23.06;60.65;98820.13;5075035;28;20046;-91
2022/07/23 05:08:33;;;;;;;11.38;8.23;;;;;;;23.06;60.43;98813.84;5072514;28;20043;-91
2022/07/23 05:10:59;;;;;;;12.55;8.75;;;;;;;23.32;60.80;98830.81;5073455;28;20045;-90
2022/07/23 05:13:24;;;;;;;11.90;9.10;;;;;;;23.91;58.84;98832.47;5072252;28;20386;-91
2022/07/23 05:15:51;;;;;;;14.35;9.68;;;;;;;24.54;57.03;98846.34;5073565;28;20040;-91
2022/07/23 05:18:16;;;;;;;19.75;10.32;;;;;;;24.93;55.13;98835.81;5073071;28;20472;-92
2022/07/23 05:20:42;;;;;;;15.73;10.23;;;;;;;25.28;56.02;98830.06;5073749;28;20127;-92
2022/07/23 05:23:09;;;;;;;14.65;9.80;;;;;;;25.66;54.94;98841.34;5072912;28;20127;-91
2022/07/23 05:25:35;;;;;;;15.35;9.70;;;;;;;25.79;51.66;98833.81;5072864;28;20060;-94
2022/07/23 05:28:01;;;;;;;15.55;9.95;;;;;;;25.88;49.82;98816.66;5073486;28;20063;-91
2022/07/23 05:30:27;;;;;;;18.60;9.82;;;;;;;26.24;49.67;98841.63;5073251;28;20028;-92
2022/07/23 05:32:52;;;;;;;16.30;9.48;;;;;;;26.44;48.63;98847.97;5073368;28;20139;-93
2022/07/23 05:35:18;;;;;;;14.15;9.60;;;;;;;26.63;48.03;98860.78;5072786;28;20046;-90
2022/07/23 05:37:44;;;;;;;14.80;11.00;;;;;;;26.73;47.17;98848.03;5072840;28;20082;-93
2022/07/23 05:40:13;;;;;;;16.85;9.65;;;;;;;26.82;47.13;98851.75;5073317;28;20123;-92
2022/07/23 05:42:40;;;;;;;15.23;9.77;;;;;;;26.95;47.07;98856.94;5073185;28;20124;-92
2022/07/23 05:45:07;;;;;;;16.35;8.98;;;;;;;27.10;46.25;98850.03;5073098;28;20106;-92
2022/07/23 05:47:39;;;;;;;16.15;10.02;;;;;;;27.11;46.15;98840.88;5073671;28;20093;-92
2022/07/23 05:50:06;;;;;;;16.33;9.60;;;;;;;27.22;46.62;98838.00;5073533;28;20044;-91
2022/07/23 05:52:32;;;;;;;14.07;9.52;;;;;;;27.38;46.13;98842.00;5073533;28;20145;-92
2022/07/23 05:54:57;;;;;;;15.10;9.68;;;;;;;27.48;45.50;98848.31;5071330;28;20426;-93
2022/07/23 05:57:24;;;;;;;13.38;10.20;;;;;;;27.50;45.99;98835.38;5072640;28;20053;-91
2022/07/23 05:59:50;;;;;;;12.98;10.10;;;;;;;27.49;45.72;98822.69;5072648;28;20469;-92
2022/07/23 06:02:16;;;;;;;16.65;10.25;;;;;;;27.69;45.03;98849.97;5072904;28;20102;-91
2022/07/23 06:04:42;;;;;;;18.13;9.80;;;;;;;27.71;45.22;98845.22;5072590;28;20037;-91
2022/07/23 06:07:08;;;;;;;11.70;9.13;;;;;;;27.63;45.06;98832.31;5072552;28;20037;-92
2022/07/23 06:09:33;;;;;;;12.40;9.52;;;;;;;27.68;44.86;98837.31;5071815;28;20041;-89
2022/07/23 06:11:59;;;;;;;19.27;10.35;;;;;;;27.80;44.77;98847.94;5072240;28;20050;-90
2022/07/23 06:14:26;;;;;;;15.82;10.20;;;;;;;27.80;44.31;98836.13;5071215;28;20083;-90
2022/07/23 06:16:52;;;;;;;15.55;10.38;;;;;;;27.84;44.67;98848.47;5071957;28;20037;-91
2022/07/23 06:19:18;;;;;;;16.25;9.80;;;;;;;27.94;44.52;98852.06;5073562;28;20441;-91
2022/07/23 06:21:44;;;;;;;12.35;9.23;;;;;;;27.92;44.42;98842.31;5076508;28;20497;-91
2022/07/23 06:24:09;;;;;;;14.60;9.90;;;;;;;28.10;44.34;98850.56;5076543;28;20044;-90
2022/07/23 06:26:35;;;;;;;15.05;9.48;;;;;;;28.11;43.92;98841.38;5076115;28;20063;-92
2022/07/23 06:29:01;;;;;;;15.02;9.95;;;;;;;28.21;43.82;98855.81;5076790;28;20087;-90
2022/07/23 06:31:28;;;;;;;13.93;9.50;;;;;;;28.31;44.17;98855.78;5076620;28;20043;-91
2022/07/23 06:33:54;;;;;;;14.18;9.60;;;;;;;28.31;44.00;98836.63;5074590;28;20037;-91
2022/07/23 06:36:20;;;;;;;16.60;9.27;;;;;;;28.36;43.36;98843.34;5076428;28;20097;-91
2022/07/23 06:38:46;;;;;;;13.88;9.50;;;;;;;28.53;42.92;98858.13;5076084;28;20037;-91
2022/07/23 06:41:12;;;;;;;13.68;8.95;;;;;;;28.57;43.31;98854.06;5076044;28;20044;-89
2022/07/23 06:43:38;;;;;;;11.75;9.25;;;;;;;28.70;43.09;98861.03;5074951;28;20490;-92
2022/07/23 06:46:04;;;;;;;10.45;9.07;;;;;;;28.80;42.98;98865.44;5076155;28;20040;-92
2022/07/23 06:48:31;;;;;;;12.43;9.48;;;;;;;28.81;43.29;98844.38;5075872;28;20056;-91
2022/07/23 06:50:57;;;;;;;11.50;9.20;;;;;;;29.07;42.98;98858.16;5074173;28;20398;-90
2022/07/23 06:53:23;;;;;;;16.90;10.23;;;;;;;29.10;42.57;98846.91;5075612;28;20040;-92
2022/07/23 06:55:49;;;;;;;17.42;9.38;;;;;;;29.17;42.77;98860.81;5075058;28;20040;-91
2022/07/23 06:58:15;;;;;;;12.07;9.43;;;;;;;29.25;42.67;98866.38;5076722;28;20055;-92
2022/07/23 07:00:41;;;;;;;13.55;9.20;;;;;;;29.12;42.80;98846.75;5077946;28;20068;-91
2022/07/23 07:03:06;;;;;;;12.30;9.20;;;;;;;29.21;42.61;98852.16;5076441;28;20502;-91
2022/07/23 07:05:34;;;;;;;15.93;9.50;;;;;;;29.21;42.45;98845.78;5075006;28;20039;-91
2022/07/23 07:07:59;;;;;;;15.35;9.50;;;;;;;29.25;42.77;98836.25;5076324;28;20099;-89
2022/07/23 07:10:25;;;;;;;16.27;9.63;;;;;;;29.40;42.27;98853.81;5075615;28;20060;-93
2022/07/23 07:12:51;;;;;;;13.00;9.40;;;;;;;29.53;41.83;98853.41;5076258;28;20041;-92
2022/07/23 07:15:17;;;;;;;13.88;9.57;;;;;;;29.69;42.67;98845.34;5075701;28;20053;-91
2022/07/23 07:17:43;;;;;;;14.05;9.38;;;;;;;29.78;41.75;98837.16;5076442;28;20060;-91
2022/07/23 07:20:10;;;;;;;17.00;9.57;;;;;;;29.99;41.53;98854.06;5076054;28;20081;-92
2022/07/23 07:22:37;;;;;;;11.32;9.35;;;;;;;30.13;41.05;98846.25;5075383;28;20040;-90
2022/07/23 07:25:04;;;;;;;12.23;9.25;;;;;;;30.25;40.94;98836.69;5076270;28;20043;-94
2022/07/23 07:27:29;;;;;;;13.18;9.80;;;;;;;30.33;40.18;98844.97;5076199;28;20123;-91
2022/07/23 07:29:55;;;;;;;12.85;9.30;;;;;;;30.36;40.40;98835.56;5074927;28;20136;-90
2022/07/23 07:32:21;;;;;;;14.02;9.30;;;;;;;30.27;39.84;98827.25;5075901;28;20033;-92
2022/07/23 07:34:47;;;;;;;10.57;9.35;;;;;;;30.46;39.66;98850.00;5074872;28;20485;-90
2022/07/23 07:37:12;;;;;;;12.10;9.02;;;;;;;30.17;39.66;98832.03;5074482;28;20497;-91
2022/07/23 07:39:40;;;;;;;12.25;9.88;;;;;;;30.32;39.77;98828.69;5075092;28;20032;-92
2022/07/23 07:42:06;;;;;;;11.07;9.35;;;;;;;30.16;40.28;98835.78;5076019;28;20059;-90
2022/07/23 07:44:31;;;;;;;12.55;9.00;;;;;;;30.26;40.58;98832.94;5075317;28;20037;-93
2022/07/23 07:46:57;;;;;;;15.45;9.50;;;;;;;30.43;40.12;98821.03;5074851;28;20123;-91
2022/07/23 07:49:23;;;;;;;13.10;9.30;;;;;;;30.64;38.82;98820.56;5074919;28;20052;-94
2022/07/23 07:51:49;;;;;;;10.07;8.50;;;;;;;31.02;38.30;98833.84;5074025;28;20041;-94
2022/07/23 07:54:15;;;;;;;12.85;9.50;;;;;;;31.13;37.99;98817.00;5075944;28;20044;-93
2022/07/23 07:56:42;;;;;;;11.20;8.52;;;;;;;31.41;36.55;98825.75;5075277;28;20045;-94
2022/07/23 07:59:08;;;;;;;10.57;9.02;;;;;;;31.51;36.69;98818.22;5074292;28;20051;-93
2022/07/23 08:01:34;;;;;;;11.65;8.63;;;;;;;31.50;36.31;98804.66;5074734;28;20400;-89
2022/07/23 08:04:00;;;;;;;11.38;9.20;;;;;;;31.62;36.01;98811.50;5074472;28;20097;-92
2022/07/23 08:06:25;;;;;;;15.57;8.93;;;;;;;31.81;36.51;98840.47;5075180;28;20032;-90
2022/07/23 08:08:51;;;;;;;13.23;9.45;;;;;;;31.37;36.06;98802.41;5074058;28;20064;-91
2022/07/23 08:11:17;;;;;;;12.15;9.40;;;;;;;31.42;36.33;98816.50;5074465;28;20041;-91
2022/07/23 08:13:44;;;;;;;11.60;9.48;;;;;;;31.17;37.49;98826.63;5074859;28;20516;-92
2022/07/23 08:16:10;;;;;;;15.95;9.32;;;;;;;31.15;37.73;98816.84;5078067;28;20497;-93
2022/07/23 08:18:36;;;;;;;11.05;8.88;;;;;;;31.51;36.40;98820.09;5075140;28;20152;-90
2022/07/23 08:21:04;;;;;;;12.95;8.88;;;;;;;31.80;35.47;98815.91;5074503;28;20032;-91
2022/07/23 08:23:31;;;;;;;9.18;8.27;;;;;;;31.82;34.69;98824.84;5074307;28;20563;-92
2022/07/23 08:25:57;;;;;;;11.25;8.27;;;;;;;31.59;34.52;98814.59;5074428;28;20071;-93
2022/07/23 08:28:23;;;;;;;11.30;8.20;;;;;;;31.98;34.34;98822.06;5074686;28;20515;-92
2022/07/23 08:30:50;;;;;;;8.93;7.80;;;;;;;31.86;34.92;98818.81;5075554;28;20033;-89
2022/07/23 08:33:17;;;;;;;12.18;8.40;;;;;;;32.00;34.29;98814.50;5075116;28;20032;-92
2022/07/23 08:35:46;;;;;;;10.48;7.60;;;;;;;32.31;33.36;98816.41;5074617;28;20048;-90
2022/07/23 08:38:13;;;;;;;9.07;6.93;;;;;;;32.30;32.01;98814.72;5074088;28;20041;-94
2022/07/23 08:40:41;;;;;;;8.73;7.45;;;;;;;31.70;32.72;98816.09;5074928;28;20033;-92
2022/07/23 08:43:08;;;;;;;10.13;6.93;;;;;;;31.72;31.53;98798.41;5073889;28;20056;-91
2022/07/23 08:45:37;;;;;;;11.63;8.00;;;;;;;32.03;33.73;98819.66;5073814;28;20089;-91
2022/07/23 08:48:05;;;;;;;;;;;;;;;32.49;33.40;98819.78;5075007;28;20036;-93
2022/07/23 08:50:31;;;;;;;9.70;7.68;;;;;;;32.77;31.61;98816.53;5073290;28;19927;-93
2022/07/23 08:52:59;;;;;;;11.25;7.95;;;;;;;32.80;31.90;98804.28;5074363;28;20100;-91
2022/07/23 08:55:25;;;;;;;10.82;8.40;;;;;;;31.84;32.92;98801.63;5075086;28;20489;-92
2022/07/23 08:57:53;;;;;;;9.65;8.13;;;;;;;31.67;33.83;98791.72;5075941;28;20075;-94
2022/07/23 09:00:21;;;;;;;10.90;7.90;;;;;;;31.69;34.09;98807.00;5075931;28;20044;-94
2022/07/23 09:02:48;;;;;;;9.93;8.07;;;;;;;32.10;34.27;98792.28;5075448;28;20041;-94
2022/07/23 09:05:18;;;;;;;10.18;8.20;;;;;;;32.16;33.04;98790.69;5078470;28;20075;-93
2022/07/23 09:08:05;;;;;;;10.27;8.27;;;;;;;31.84;32.65;98817.28;5077649;28;20041;-92
2022/07/23 09:10:43;;;;;;;12.45;8.35;;;;;;;32.23;31.79;98798.06;5074353;28;20064;-94
2022/07/23 09:13:24;;;;;;;9.23;7.65;;;;;;;32.64;32.16;98810.75;5074121;28;20094;-94
2022/07/23 09:15:50;;;;;;;9.63;8.02;;;;;;;32.93;30.84;98810.03;5074131;28;20043;-93
2022/07/23 09:18:16;;;;;;;9.50;7.55;;;;;;;32.80;30.52;98818.91;5074195;28;20114;-90
2022/07/23 09:20:44;;;;;;;8.65;7.32;;;;;;;33.09;30.48;98809.94;5074557;28;20040;-89
2022/07/23 09:23:10;;;;;;;9.88;7.65;;;;;;;33.34;29.76;98807.81;5074603;28;21364;-95
2022/07/23 09:25:36;;;;;;;11.80;7.65;;;;;;;33.39;29.62;98811.91;5072891;28;20036;-91
2022/07/23 09:28:02;;;;;;;8.48;7.18;;;;;;;33.75;28.74;98801.06;5075794;28;20097;-93
2022/07/23 09:30:30;;;;;;;8.43;6.63;;;;;;;34.06;27.38;98816.56;5074857;28;20047;-94
2022/07/23 09:33:07;;;;;;;8.52;7.07;;;;;;;34.07;27.23;98805.34;5073852;28;20075;-92
2022/07/23 09:35:50;;;;;;;9.67;7.00;;;;;;;34.15;28.08;98783.16;5076657;28;20040;-93
2022/07/23 09:38:17;;;;;;;8.15;7.32;;;;;;;34.52;27.44;98814.41;5071216;28;20044;-90
2022/07/23 09:40:44;;;;;;;9.90;7.43;;;;;;;34.55;26.86;98788.34;5074298;28;20044;-91
2022/07/23 09:43:09;;;;;;;8.32;6.32;;;;;;;34.82;26.13;98795.00;5073568;28;20058;-88
2022/07/23 09:45:35;;;;;;;8.82;6.10;;;;;;;34.88;26.11;98793.38;5072658;28;20028;-89
2022/07/23 09:48:12;;;;;;;8.15;6.43;;;;;;;34.90;25.60;98791.28;5072377;28;20458;-87
2022/07/23 09:50:38;;;;;;;11.45;7.10;;;;;;;34.67;25.86;98791.44;5072586;28;20037;-90
2022/07/23 09:53:05;;;;;;;9.85;7.22;;;;;;;34.87;26.36;98797.19;5076019;28;20176;-92
2022/07/23 09:55:39;;;;;;;7.63;6.57;;;;;;;34.87;26.84;98798.03;5073071;28;20040;-91
2022/07/23 09:58:09;;;;;;;7.65;6.68;;;;;;;34.38;26.35;98787.72;5077008;28;20054;-94
2022/07/23 10:00:36;;;;;;;7.57;6.78;;;;;;;34.60;26.60;98794.13;5076660;28;20462;-93
2022/07/23 10:03:05;;;;;;;11.00;7.03;;;;;;;34.53;26.21;98783.00;5073977;28;20033;-92
2022/07/23 10:05:32;;;;;;;10.07;6.90;;;;;;;34.84;25.97;98792.91;5071981;28;20033;-91
2022/07/23 10:08:01;;;;;;;8.63;6.67;;;;;;;34.98;25.66;98760.72;5074335;28;20040;-95
2022/07/23 10:10:30;;;;;;;8.27;6.40;;;;;;;35.20;25.56;98774.53;5077103;28;20051;-94
2022/07/23 10:13:09;;;;;;;9.93;6.80;;;;;;;35.24;26.17;98765.66;5077445;28;20044;-92
2022/07/23 10:15:36;;;;;;;9.07;6.90;;;;;;;35.07;25.39;98766.97;5074558;28;20094;-93
2022/07/23 10:18:02;;;;;;;8.05;6.55;;;;;;;35.25;26.01;98772.91;5075635;28;20048;-91
2022/07/23 10:20:28;;;;;;;9.77;7.22;;;;;;;35.32;25.85;98768.28;5076380;28;20094;-94
2022/07/23 10:23:02;;;;;;;7.63;6.68;;;;;;;35.35;25.22;98759.59;5074887;28;20222;-91
2022/07/23 10:25:39;;;;;;;7.82;6.55;;;;;;;35.47;25.48;98770.94;5074144;28;20505;-90
2022/07/23 10:28:20;;;;;;;7.82;7.05;;;;;;;35.28;25.44;98764.19;5075228;28;20036;-91
2022/07/23 10:30:56;;;;;;;12.13;6.85;;;;;;;35.60;25.89;98775.69;5074955;28;20036;-90
2022/07/23 10:33:35;;;;;;;8.15;7.07;;;;;;;35.63;25.50;98747.66;5076280;28;20048;-94
2022/07/23 10:36:07;;;;;;;8.05;7.00;;;;;;;35.67;25.88;98740.66;5074535;28;20493;-91
2022/07/23 10:38:40;;;;;;;8.63;7.18;;;;;;;35.79;25.85;98727.97;5075690;28;20040;-93
2022/07/23 10:41:07;;;;;;;7.95;7.10;;;;;;;35.89;25.04;98746.97;5075844;28;20036;-92
2022/07/23 10:43:34;;;;;;;10.60;7.33;;;;;;;35.73;26.02;98736.25;5079570;28;20037;-92
2022/07/23 10:46:21;;;;;;;9.07;7.22;;;;;;;35.93;26.33;98759.31;5077786;28;20358;-94
2022/07/23 10:49:07;;;;;;;;;;;;;;;35.34;25.92;98749.56;5075049;28;20338;-92
2022/07/23 10:51:33;;;;;;;10.00;8.00;;;;;;;35.55;26.46;98728.44;5072679;28;19927;-94
2022/07/23 10:53:58;;;;;;;9.18;7.85;;;;;;;35.37;25.88;98732.59;5075202;28;20051;-87
2022/07/23 10:57:06;;;;;;;12.23;8.25;;;;;;;34.85;26.42;98728.31;5075232;28;20123;-93
2022/07/23 11:00:11;;;;;;;10.32;7.60;;;;;;;34.93;26.38;98735.59;5072059;28;20045;-93
2022/07/23 11:02:39;;;;;;;9.13;7.70;;;;;;;35.13;26.64;98724.75;5073976;28;20044;-92
2022/07/23 11:05:07;;;;;;;8.48;7.30;;;;;;;35.47;25.88;98726.69;5073186;28;20045;-94
2022/07/23 11:07:33;;;;;;;9.82;7.68;;;;;;;35.47;25.89;98710.09;5077475;28;20090;-92
2022/07/23 11:09:59;;;;;;;11.57;7.70;;;;;;;35.78;25.62;98717.97;5076511;28;20064;-92
2022/07/23 11:12:36;;;;;;;10.52;7.43;;;;;;;36.07;25.28;98715.97;5078353;28;20044;-89
2022/07/23 11:15:06;;;;;;;10.02;7.68;;;;;;;36.12;24.99;98701.50;5073752;28;20399;-88
2022/07/23 11:17:33;;;;;;;9.00;7.20;;;;;;;35.98;23.63;98708.91;5074021;28;20428;-91
2022/07/23 11:20:20;;;;;;;7.50;6.80;;;;;;;36.15;22.96;98709.41;5076683;28;20071;-93
2022/07/23 11:22:49;;;;;;;8.63;7.07;;;;;;;36.21;21.95;98704.97;5075646;28;20276;-88
2022/07/23 11:25:38;;;;;;;9.23;7.45;;;;;;;36.15;22.77;98695.56;5076267;28;20052;-89
2022/07/23 11:28:15;;;;;;;10.07;7.55;;;;;;;36.27;24.31;98695.81;5076467;28;20052;-92
2022/07/23 11:30:44;;;;;;;8.82;7.25;;;;;;;36.51;24.56;98686.91;5074834;28;20048;-92